sensor_id;sensor_type;location;lat;lon;timestamp;P1;durP1;ratioP1;P2;durP2;ratioP2
13941;SDS011;7043;51.630;7.254;2022-12-18T00:00:31;74.27;;;43.57;;
13941;SDS011;7043;51.630;7.254;2022-12-18T00:02:57;75.00;;;43.57;;
13941;SDS011;7043;51.630;7.254;2022-12-18T00:05:23;72.40;;;43.70;;
13941;SDS011;7043;51.630;7.254;2022-12-18T00:07:49;76.87;;;43.73;;
13941;SDS011;7043;51.630;7.254;2022-12-18T00:10:15;92.40;;;51.73;;
13941;SDS011;7043;51.630;7.254;2022-12-18T00:12:41;83.87;;;48.17;;
13941;SDS011;7043;51.630;7.254;2022-12-18T00:15:07;70.23;;;43.63;;
13941;SDS011;7043;51.630;7.254;2022-12-18T00:17:33;77.23;;;41.77;;
13941;SDS011;7043;51.630;7.254;2022-12-18T00:19:59;66.17;;;39.83;;
13941;SDS011;7043;51.630;7.254;2022-12-18T00:22:25;63.57;;;39.60;;
13941;SDS011;7043;51.630;7.254;2022-12-18T00:24:51;66.83;;;39.87;;
13941;SDS011;7043;51.630;7.254;2022-12-18T00:27:16;58.37;;;36.47;;
13941;SDS011;7043;51.630;7.254;2022-12-18T00:29:42;66.07;;;38.77;;
13941;SDS011;7043;51.630;7.254;2022-12-18T00:32:08;58.63;;;37.27;;
13941;SDS011;7043;51.630;7.254;2022-12-18T00:34:34;65.40;;;38.23;;
13941;SDS011;7043;51.630;7.254;2022-12-18T00:37:00;70.77;;;41.67;;
13941;SDS011;7043;51.630;7.254;2022-12-18T00:39:26;75.77;;;42.53;;
13941;SDS011;7043;51.630;7.254;2022-12-18T00:41:52;78.30;;;45.07;;
13941;SDS011;7043;51.630;7.254;2022-12-18T00:44:37;83.50;;;47.23;;
13941;SDS011;7043;51.630;7.254;2022-12-18T00:47:03;75.20;;;42.67;;
13941;SDS011;7043;51.630;7.254;2022-12-18T00:49:29;67.03;;;41.50;;
13941;SDS011;7043;51.630;7.254;2022-12-18T00:51:55;79.00;;;45.80;;
13941;SDS011;7043;51.630;7.254;2022-12-18T00:54:21;66.03;;;42.27;;
13941;SDS011;7043;51.630;7.254;2022-12-18T00:56:47;78.83;;;45.70;;
13941;SDS011;7043;51.630;7.254;2022-12-18T00:59:13;85.03;;;45.77;;
13941;SDS011;7043;51.630;7.254;2022-12-18T01:01:39;70.07;;;41.73;;
13941;SDS011;7043;51.630;7.254;2022-12-18T01:04:05;84.20;;;46.80;;
13941;SDS011;7043;51.630;7.254;2022-12-18T01:06:31;79.43;;;45.57;;
13941;SDS011;7043;51.630;7.254;2022-12-18T01:08:57;71.93;;;42.60;;
13941;SDS011;7043;51.630;7.254;2022-12-18T01:11:23;104.70;;;50.80;;
13941;SDS011;7043;51.630;7.254;2022-12-18T01:13:51;69.33;;;41.10;;
13941;SDS011;7043;51.630;7.254;2022-12-18T01:16:17;65.93;;;40.53;;
13941;SDS011;7043;51.630;7.254;2022-12-18T01:18:43;61.13;;;37.23;;
13941;SDS011;7043;51.630;7.254;2022-12-18T01:21:14;65.07;;;38.63;;
13941;SDS011;7043;51.630;7.254;2022-12-18T01:23:40;72.03;;;40.13;;
13941;SDS011;7043;51.630;7.254;2022-12-18T01:26:08;65.97;;;39.40;;
13941;SDS011;7043;51.630;7.254;2022-12-18T01:28:35;89.63;;;44.50;;
13941;SDS011;7043;51.630;7.254;2022-12-18T01:31:11;113.67;;;54.00;;
13941;SDS011;7043;51.630;7.254;2022-12-18T01:33:37;82.10;;;43.93;;
13941;SDS011;7043;51.630;7.254;2022-12-18T01:36:03;92.00;;;46.17;;
13941;SDS011;7043;51.630;7.254;2022-12-18T01:38:29;63.20;;;38.77;;
13941;SDS011;7043;51.630;7.254;2022-12-18T01:40:58;111.83;;;52.53;;
13941;SDS011;7043;51.630;7.254;2022-12-18T01:46:09;73.80;;;41.43;;
13941;SDS011;7043;51.630;7.254;2022-12-18T01:48:35;76.70;;;42.07;;
13941;SDS011;7043;51.630;7.254;2022-12-18T01:51:02;64.40;;;38.97;;
13941;SDS011;7043;51.630;7.254;2022-12-18T01:53:31;68.80;;;38.30;;
13941;SDS011;7043;51.630;7.254;2022-12-18T01:55:57;73.60;;;44.00;;
13941;SDS011;7043;51.630;7.254;2022-12-18T01:58:27;78.03;;;45.50;;
13941;SDS011;7043;51.630;7.254;2022-12-18T02:00:55;73.60;;;42.60;;
13941;SDS011;7043;51.630;7.254;2022-12-18T02:03:21;71.77;;;43.27;;
13941;SDS011;7043;51.630;7.254;2022-12-18T02:05:54;84.70;;;47.67;;
13941;SDS011;7043;51.630;7.254;2022-12-18T02:08:27;75.70;;;45.70;;
13941;SDS011;7043;51.630;7.254;2022-12-18T02:11:05;73.10;;;42.80;;
13941;SDS011;7043;51.630;7.254;2022-12-18T02:13:38;65.03;;;39.93;;
13941;SDS011;7043;51.630;7.254;2022-12-18T02:18:40;61.53;;;38.17;;
13941;SDS011;7043;51.630;7.254;2022-12-18T02:23:56;54.27;;;35.80;;
13941;SDS011;7043;51.630;7.254;2022-12-18T02:28:53;56.73;;;36.27;;
13941;SDS011;7043;51.630;7.254;2022-12-18T02:31:21;61.30;;;38.73;;
13941;SDS011;7043;51.630;7.254;2022-12-18T02:33:49;58.63;;;36.20;;
13941;SDS011;7043;51.630;7.254;2022-12-18T02:36:15;54.43;;;35.10;;
13941;SDS011;7043;51.630;7.254;2022-12-18T02:38:42;56.90;;;35.60;;
13941;SDS011;7043;51.630;7.254;2022-12-18T02:41:09;54.77;;;35.07;;
13941;SDS011;7043;51.630;7.254;2022-12-18T02:43:35;54.97;;;35.10;;
13941;SDS011;7043;51.630;7.254;2022-12-18T02:46:20;52.00;;;35.97;;
13941;SDS011;7043;51.630;7.254;2022-12-18T02:48:47;55.27;;;35.53;;
13941;SDS011;7043;51.630;7.254;2022-12-18T02:51:18;55.63;;;36.83;;
13941;SDS011;7043;51.630;7.254;2022-12-18T02:53:56;56.90;;;36.30;;
13941;SDS011;7043;51.630;7.254;2022-12-18T02:56:26;52.20;;;35.37;;
13941;SDS011;7043;51.630;7.254;2022-12-18T03:01:21;59.87;;;38.00;;
13941;SDS011;7043;51.630;7.254;2022-12-18T03:03:55;55.07;;;35.00;;
13941;SDS011;7043;51.630;7.254;2022-12-18T03:06:29;53.20;;;35.73;;
13941;SDS011;7043;51.630;7.254;2022-12-18T03:08:58;53.07;;;35.07;;
13941;SDS011;7043;51.630;7.254;2022-12-18T03:11:25;56.97;;;36.67;;
13941;SDS011;7043;51.630;7.254;2022-12-18T03:14:10;56.83;;;36.33;;
13941;SDS011;7043;51.630;7.254;2022-12-18T03:16:38;58.20;;;36.73;;
13941;SDS011;7043;51.630;7.254;2022-12-18T03:19:11;52.50;;;34.80;;
13941;SDS011;7043;51.630;7.254;2022-12-18T03:21:42;53.07;;;33.43;;
13941;SDS011;7043;51.630;7.254;2022-12-18T03:24:09;50.90;;;32.77;;
13941;SDS011;7043;51.630;7.254;2022-12-18T03:26:35;54.37;;;34.70;;
13941;SDS011;7043;51.630;7.254;2022-12-18T03:29:05;55.83;;;36.10;;
13941;SDS011;7043;51.630;7.254;2022-12-18T03:31:35;52.13;;;34.47;;
13941;SDS011;7043;51.630;7.254;2022-12-18T03:34:04;48.87;;;32.47;;
13941;SDS011;7043;51.630;7.254;2022-12-18T03:36:31;50.63;;;33.13;;
13941;SDS011;7043;51.630;7.254;2022-12-18T03:38:57;52.70;;;33.83;;
13941;SDS011;7043;51.630;7.254;2022-12-18T03:41:27;51.80;;;33.87;;
13941;SDS011;7043;51.630;7.254;2022-12-18T03:44:08;46.70;;;31.87;;
13941;SDS011;7043;51.630;7.254;2022-12-18T03:49:19;50.03;;;32.87;;
13941;SDS011;7043;51.630;7.254;2022-12-18T03:51:49;50.73;;;32.13;;
13941;SDS011;7043;51.630;7.254;2022-12-18T03:54:16;46.43;;;31.90;;
13941;SDS011;7043;51.630;7.254;2022-12-18T03:56:45;48.87;;;32.07;;
13941;SDS011;7043;51.630;7.254;2022-12-18T03:59:13;46.50;;;32.03;;
13941;SDS011;7043;51.630;7.254;2022-12-18T04:01:42;49.60;;;33.83;;
13941;SDS011;7043;51.630;7.254;2022-12-18T04:04:09;50.77;;;34.80;;
13941;SDS011;7043;51.630;7.254;2022-12-18T04:06:36;54.10;;;34.33;;
13941;SDS011;7043;51.630;7.254;2022-12-18T04:09:03;52.67;;;35.33;;
13941;SDS011;7043;51.630;7.254;2022-12-18T04:11:30;50.53;;;33.53;;
13941;SDS011;7043;51.630;7.254;2022-12-18T04:13:56;53.50;;;35.77;;
13941;SDS011;7043;51.630;7.254;2022-12-18T04:16:23;50.23;;;33.33;;
13941;SDS011;7043;51.630;7.254;2022-12-18T04:18:49;51.53;;;33.33;;
13941;SDS011;7043;51.630;7.254;2022-12-18T04:21:15;48.57;;;32.23;;
13941;SDS011;7043;51.630;7.254;2022-12-18T04:23:41;48.53;;;33.33;;
13941;SDS011;7043;51.630;7.254;2022-12-18T04:26:07;48.67;;;32.87;;
13941;SDS011;7043;51.630;7.254;2022-12-18T04:28:33;45.67;;;32.07;;
13941;SDS011;7043;51.630;7.254;2022-12-18T04:30:59;46.87;;;31.90;;
13941;SDS011;7043;51.630;7.254;2022-12-18T04:33:25;49.90;;;31.30;;
13941;SDS011;7043;51.630;7.254;2022-12-18T04:35:51;51.87;;;32.67;;
13941;SDS011;7043;51.630;7.254;2022-12-18T04:38:17;50.17;;;33.20;;
13941;SDS011;7043;51.630;7.254;2022-12-18T04:40:43;46.87;;;32.23;;
13941;SDS011;7043;51.630;7.254;2022-12-18T04:43:09;50.60;;;32.07;;
13941;SDS011;7043;51.630;7.254;2022-12-18T04:45:35;46.33;;;31.43;;
13941;SDS011;7043;51.630;7.254;2022-12-18T04:48:01;45.20;;;31.03;;
13941;SDS011;7043;51.630;7.254;2022-12-18T04:50:27;49.37;;;32.67;;
13941;SDS011;7043;51.630;7.254;2022-12-18T04:52:54;44.67;;;30.60;;
13941;SDS011;7043;51.630;7.254;2022-12-18T04:55:20;47.50;;;31.63;;
13941;SDS011;7043;51.630;7.254;2022-12-18T04:57:49;48.23;;;30.13;;
13941;SDS011;7043;51.630;7.254;2022-12-18T05:00:15;47.30;;;31.10;;
13941;SDS011;7043;51.630;7.254;2022-12-18T05:02:41;46.23;;;31.20;;
13941;SDS011;7043;51.630;7.254;2022-12-18T05:05:07;44.77;;;30.43;;
13941;SDS011;7043;51.630;7.254;2022-12-18T05:07:33;49.00;;;31.47;;
13941;SDS011;7043;51.630;7.254;2022-12-18T05:09:59;47.93;;;30.07;;
13941;SDS011;7043;51.630;7.254;2022-12-18T05:12:25;45.00;;;29.93;;
13941;SDS011;7043;51.630;7.254;2022-12-18T05:14:51;46.77;;;31.27;;
13941;SDS011;7043;51.630;7.254;2022-12-18T05:17:17;48.10;;;33.33;;
13941;SDS011;7043;51.630;7.254;2022-12-18T05:19:43;48.17;;;32.17;;
13941;SDS011;7043;51.630;7.254;2022-12-18T05:22:09;47.20;;;32.00;;
13941;SDS011;7043;51.630;7.254;2022-12-18T05:24:35;46.47;;;31.30;;
13941;SDS011;7043;51.630;7.254;2022-12-18T05:27:01;48.03;;;31.13;;
13941;SDS011;7043;51.630;7.254;2022-12-18T05:29:27;46.97;;;31.70;;
13941;SDS011;7043;51.630;7.254;2022-12-18T05:31:53;45.00;;;31.97;;
13941;SDS011;7043;51.630;7.254;2022-12-18T05:34:19;51.93;;;33.37;;
13941;SDS011;7043;51.630;7.254;2022-12-18T05:36:45;47.60;;;31.90;;
13941;SDS011;7043;51.630;7.254;2022-12-18T05:39:11;46.17;;;31.07;;
13941;SDS011;7043;51.630;7.254;2022-12-18T05:41:37;46.87;;;31.43;;
13941;SDS011;7043;51.630;7.254;2022-12-18T05:44:03;49.23;;;32.43;;
13941;SDS011;7043;51.630;7.254;2022-12-18T05:46:30;49.97;;;31.67;;
13941;SDS011;7043;51.630;7.254;2022-12-18T05:48:58;48.80;;;32.70;;
13941;SDS011;7043;51.630;7.254;2022-12-18T05:51:25;51.07;;;32.57;;
13941;SDS011;7043;51.630;7.254;2022-12-18T05:53:50;44.53;;;31.13;;
13941;SDS011;7043;51.630;7.254;2022-12-18T05:56:18;47.43;;;30.87;;
13941;SDS011;7043;51.630;7.254;2022-12-18T05:58:44;43.73;;;29.57;;
13941;SDS011;7043;51.630;7.254;2022-12-18T06:01:14;45.37;;;31.03;;
13941;SDS011;7043;51.630;7.254;2022-12-18T06:03:40;49.73;;;31.40;;
13941;SDS011;7043;51.630;7.254;2022-12-18T06:06:40;49.80;;;31.90;;
13941;SDS011;7043;51.630;7.254;2022-12-18T06:08:58;44.77;;;29.73;;
13941;SDS011;7043;51.630;7.254;2022-12-18T06:11:26;44.40;;;30.03;;
13941;SDS011;7043;51.630;7.254;2022-12-18T06:13:53;43.53;;;28.87;;
13941;SDS011;7043;51.630;7.254;2022-12-18T06:16:19;43.67;;;29.63;;
13941;SDS011;7043;51.630;7.254;2022-12-18T06:18:45;45.10;;;29.77;;
13941;SDS011;7043;51.630;7.254;2022-12-18T06:21:11;46.10;;;29.03;;
13941;SDS011;7043;51.630;7.254;2022-12-18T06:23:38;41.07;;;28.60;;
13941;SDS011;7043;51.630;7.254;2022-12-18T06:26:06;43.57;;;29.57;;
13941;SDS011;7043;51.630;7.254;2022-12-18T06:28:32;43.83;;;29.83;;
13941;SDS011;7043;51.630;7.254;2022-12-18T06:30:58;41.23;;;29.03;;
13941;SDS011;7043;51.630;7.254;2022-12-18T06:33:27;42.47;;;29.43;;
13941;SDS011;7043;51.630;7.254;2022-12-18T06:35:53;40.57;;;28.27;;
13941;SDS011;7043;51.630;7.254;2022-12-18T06:38:19;43.00;;;29.00;;
13941;SDS011;7043;51.630;7.254;2022-12-18T06:40:45;44.37;;;31.43;;
13941;SDS011;7043;51.630;7.254;2022-12-18T06:43:11;45.37;;;31.07;;
13941;SDS011;7043;51.630;7.254;2022-12-18T06:45:37;45.37;;;31.03;;
13941;SDS011;7043;51.630;7.254;2022-12-18T06:48:03;43.23;;;29.90;;
13941;SDS011;7043;51.630;7.254;2022-12-18T06:50:29;38.40;;;27.40;;
13941;SDS011;7043;51.630;7.254;2022-12-18T06:52:55;41.67;;;29.17;;
13941;SDS011;7043;51.630;7.254;2022-12-18T06:55:21;39.97;;;27.37;;
13941;SDS011;7043;51.630;7.254;2022-12-18T06:57:47;38.70;;;27.10;;
13941;SDS011;7043;51.630;7.254;2022-12-18T07:00:13;37.43;;;27.57;;
13941;SDS011;7043;51.630;7.254;2022-12-18T07:02:40;37.23;;;26.90;;
13941;SDS011;7043;51.630;7.254;2022-12-18T07:05:06;38.27;;;25.70;;
13941;SDS011;7043;51.630;7.254;2022-12-18T07:07:33;37.67;;;25.00;;
13941;SDS011;7043;51.630;7.254;2022-12-18T07:09:59;34.30;;;24.67;;
13941;SDS011;7043;51.630;7.254;2022-12-18T07:12:26;35.77;;;25.53;;
13941;SDS011;7043;51.630;7.254;2022-12-18T07:14:52;38.23;;;27.37;;
13941;SDS011;7043;51.630;7.254;2022-12-18T07:17:18;38.63;;;26.43;;
13941;SDS011;7043;51.630;7.254;2022-12-18T07:19:44;37.73;;;26.63;;
13941;SDS011;7043;51.630;7.254;2022-12-18T07:22:10;40.13;;;27.33;;
13941;SDS011;7043;51.630;7.254;2022-12-18T07:24:36;40.27;;;27.37;;
13941;SDS011;7043;51.630;7.254;2022-12-18T07:27:02;36.83;;;26.90;;
13941;SDS011;7043;51.630;7.254;2022-12-18T07:29:28;36.23;;;25.97;;
13941;SDS011;7043;51.630;7.254;2022-12-18T07:31:54;35.00;;;25.47;;
13941;SDS011;7043;51.630;7.254;2022-12-18T07:34:20;39.10;;;27.03;;
13941;SDS011;7043;51.630;7.254;2022-12-18T07:36:46;37.03;;;26.40;;
13941;SDS011;7043;51.630;7.254;2022-12-18T07:39:12;38.80;;;26.53;;
13941;SDS011;7043;51.630;7.254;2022-12-18T07:41:38;38.50;;;27.50;;
13941;SDS011;7043;51.630;7.254;2022-12-18T07:44:10;35.87;;;26.63;;
13941;SDS011;7043;51.630;7.254;2022-12-18T07:46:36;39.77;;;27.87;;
13941;SDS011;7043;51.630;7.254;2022-12-18T07:49:02;39.63;;;25.87;;
13941;SDS011;7043;51.630;7.254;2022-12-18T07:51:28;36.27;;;25.97;;
13941;SDS011;7043;51.630;7.254;2022-12-18T07:53:54;43.33;;;28.90;;
13941;SDS011;7043;51.630;7.254;2022-12-18T07:56:20;44.20;;;29.93;;
13941;SDS011;7043;51.630;7.254;2022-12-18T07:58:46;39.97;;;28.67;;
13941;SDS011;7043;51.630;7.254;2022-12-18T08:01:12;41.50;;;28.23;;
13941;SDS011;7043;51.630;7.254;2022-12-18T08:03:39;48.20;;;36.93;;
13941;SDS011;7043;51.630;7.254;2022-12-18T08:06:06;86.10;;;53.40;;
13941;SDS011;7043;51.630;7.254;2022-12-18T08:08:32;114.67;;;68.20;;
13941;SDS011;7043;51.630;7.254;2022-12-18T08:10:58;69.27;;;47.83;;
13941;SDS011;7043;51.630;7.254;2022-12-18T08:13:24;117.33;;;81.30;;
13941;SDS011;7043;51.630;7.254;2022-12-18T08:16:12;49.53;;;33.27;;
13941;SDS011;7043;51.630;7.254;2022-12-18T08:18:37;39.37;;;26.70;;
13941;SDS011;7043;51.630;7.254;2022-12-18T08:21:17;47.13;;;34.77;;
13941;SDS011;7043;51.630;7.254;2022-12-18T08:23:43;41.87;;;29.77;;
13941;SDS011;7043;51.630;7.254;2022-12-18T08:26:10;38.10;;;27.40;;
13941;SDS011;7043;51.630;7.254;2022-12-18T08:28:37;36.80;;;26.87;;
13941;SDS011;7043;51.630;7.254;2022-12-18T08:31:03;43.80;;;33.07;;
13941;SDS011;7043;51.630;7.254;2022-12-18T08:33:29;40.50;;;26.70;;
13941;SDS011;7043;51.630;7.254;2022-12-18T08:35:55;36.87;;;25.03;;
13941;SDS011;7043;51.630;7.254;2022-12-18T08:38:21;29.20;;;21.43;;
13941;SDS011;7043;51.630;7.254;2022-12-18T08:40:48;30.77;;;22.17;;
13941;SDS011;7043;51.630;7.254;2022-12-18T08:43:14;29.17;;;21.30;;
13941;SDS011;7043;51.630;7.254;2022-12-18T08:45:58;27.67;;;20.30;;
13941;SDS011;7043;51.630;7.254;2022-12-18T08:48:24;29.77;;;22.07;;
13941;SDS011;7043;51.630;7.254;2022-12-18T08:50:54;32.00;;;22.17;;
13941;SDS011;7043;51.630;7.254;2022-12-18T08:53:20;30.07;;;22.50;;
13941;SDS011;7043;51.630;7.254;2022-12-18T08:55:49;29.10;;;21.20;;
13941;SDS011;7043;51.630;7.254;2022-12-18T08:58:15;27.70;;;21.07;;
13941;SDS011;7043;51.630;7.254;2022-12-18T09:00:41;30.07;;;21.13;;
13941;SDS011;7043;51.630;7.254;2022-12-18T09:03:14;29.67;;;20.50;;
13941;SDS011;7043;51.630;7.254;2022-12-18T09:05:41;31.73;;;23.17;;
13941;SDS011;7043;51.630;7.254;2022-12-18T09:08:07;32.13;;;23.60;;
13941;SDS011;7043;51.630;7.254;2022-12-18T09:10:33;31.97;;;23.87;;
13941;SDS011;7043;51.630;7.254;2022-12-18T09:12:59;41.83;;;28.57;;
13941;SDS011;7043;51.630;7.254;2022-12-18T09:15:25;33.03;;;24.60;;
13941;SDS011;7043;51.630;7.254;2022-12-18T09:17:51;30.07;;;22.50;;
13941;SDS011;7043;51.630;7.254;2022-12-18T09:20:18;28.63;;;21.27;;
13941;SDS011;7043;51.630;7.254;2022-12-18T09:22:44;27.83;;;20.33;;
13941;SDS011;7043;51.630;7.254;2022-12-18T09:25:10;23.50;;;18.53;;
13941;SDS011;7043;51.630;7.254;2022-12-18T09:27:36;25.93;;;19.40;;
13941;SDS011;7043;51.630;7.254;2022-12-18T09:30:03;30.60;;;21.40;;
13941;SDS011;7043;51.630;7.254;2022-12-18T09:32:29;64.33;;;39.10;;
13941;SDS011;7043;51.630;7.254;2022-12-18T09:34:55;44.13;;;32.17;;
13941;SDS011;7043;51.630;7.254;2022-12-18T09:37:21;35.50;;;26.40;;
13941;SDS011;7043;51.630;7.254;2022-12-18T09:39:48;38.10;;;28.10;;
13941;SDS011;7043;51.630;7.254;2022-12-18T09:42:19;31.30;;;24.80;;
13941;SDS011;7043;51.630;7.254;2022-12-18T09:44:48;25.77;;;21.30;;
13941;SDS011;7043;51.630;7.254;2022-12-18T09:47:28;28.27;;;21.40;;
13941;SDS011;7043;51.630;7.254;2022-12-18T09:49:58;29.47;;;21.77;;
13941;SDS011;7043;51.630;7.254;2022-12-18T09:52:34;27.53;;;19.90;;
13941;SDS011;7043;51.630;7.254;2022-12-18T09:55:22;49.10;;;31.50;;
13941;SDS011;7043;51.630;7.254;2022-12-18T09:57:55;38.43;;;26.53;;
13941;SDS011;7043;51.630;7.254;2022-12-18T10:00:23;33.10;;;23.40;;
13941;SDS011;7043;51.630;7.254;2022-12-18T10:02:53;133.70;;;80.30;;
13941;SDS011;7043;51.630;7.254;2022-12-18T10:18:29;36.23;;;27.43;;
13941;SDS011;7043;51.630;7.254;2022-12-18T10:21:03;27.10;;;20.43;;
13941;SDS011;7043;51.630;7.254;2022-12-18T10:26:04;51.90;;;31.67;;
13941;SDS011;7043;51.630;7.254;2022-12-18T10:28:31;35.27;;;25.57;;
13941;SDS011;7043;51.630;7.254;2022-12-18T10:30:58;27.53;;;21.37;;
13941;SDS011;7043;51.630;7.254;2022-12-18T10:33:27;27.57;;;20.57;;
13941;SDS011;7043;51.630;7.254;2022-12-18T10:35:53;26.87;;;20.97;;
13941;SDS011;7043;51.630;7.254;2022-12-18T10:38:24;23.93;;;18.13;;
13941;SDS011;7043;51.630;7.254;2022-12-18T10:46:30;23.47;;;19.40;;
13941;SDS011;7043;51.630;7.254;2022-12-18T10:51:31;22.60;;;17.93;;
13941;SDS011;7043;51.630;7.254;2022-12-18T10:54:02;22.97;;;18.27;;
13941;SDS011;7043;51.630;7.254;2022-12-18T10:56:30;24.57;;;18.90;;
13941;SDS011;7043;51.630;7.254;2022-12-18T10:58:59;26.90;;;20.50;;
13941;SDS011;7043;51.630;7.254;2022-12-18T11:01:26;23.23;;;17.70;;
13941;SDS011;7043;51.630;7.254;2022-12-18T11:06:19;25.33;;;20.57;;
13941;SDS011;7043;51.630;7.254;2022-12-18T11:11:24;23.43;;;18.43;;
13941;SDS011;7043;51.630;7.254;2022-12-18T11:16:24;29.23;;;26.07;;
13941;SDS011;7043;51.630;7.254;2022-12-18T11:18:50;44.20;;;32.40;;
13941;SDS011;7043;51.630;7.254;2022-12-18T11:21:16;48.00;;;38.13;;
13941;SDS011;7043;51.630;7.254;2022-12-18T11:23:52;36.50;;;27.80;;
13941;SDS011;7043;51.630;7.254;2022-12-18T11:26:19;40.93;;;36.60;;
13941;SDS011;7043;51.630;7.254;2022-12-18T11:28:49;27.70;;;24.43;;
13941;SDS011;7043;51.630;7.254;2022-12-18T11:31:20;32.57;;;28.87;;
13941;SDS011;7043;51.630;7.254;2022-12-18T11:34:00;26.00;;;22.47;;
13941;SDS011;7043;51.630;7.254;2022-12-18T11:36:28;29.27;;;25.77;;
13941;SDS011;7043;51.630;7.254;2022-12-18T11:38:55;26.27;;;21.00;;
13941;SDS011;7043;51.630;7.254;2022-12-18T11:41:25;24.07;;;19.90;;
13941;SDS011;7043;51.630;7.254;2022-12-18T11:44:14;23.87;;;20.37;;
13941;SDS011;7043;51.630;7.254;2022-12-18T11:46:46;22.73;;;18.23;;
13941;SDS011;7043;51.630;7.254;2022-12-18T11:49:24;20.43;;;17.07;;
13941;SDS011;7043;51.630;7.254;2022-12-18T11:52:00;23.03;;;18.33;;
13941;SDS011;7043;51.630;7.254;2022-12-18T11:54:28;21.30;;;16.97;;
13941;SDS011;7043;51.630;7.254;2022-12-18T12:02:16;20.83;;;17.83;;
13941;SDS011;7043;51.630;7.254;2022-12-18T12:04:52;23.77;;;20.27;;
13941;SDS011;7043;51.630;7.254;2022-12-18T12:07:36;28.40;;;24.93;;
13941;SDS011;7043;51.630;7.254;2022-12-18T12:25:47;19.67;;;17.50;;
13941;SDS011;7043;51.630;7.254;2022-12-18T12:38:51;16.10;;;14.30;;
13941;SDS011;7043;51.630;7.254;2022-12-18T12:41:21;75.60;;;45.57;;
13941;SDS011;7043;51.630;7.254;2022-12-18T12:44:09;28.63;;;20.43;;
13941;SDS011;7043;51.630;7.254;2022-12-18T12:46:47;41.07;;;32.63;;
13941;SDS011;7043;51.630;7.254;2022-12-18T12:49:21;26.33;;;21.10;;
13941;SDS011;7043;51.630;7.254;2022-12-18T12:52:07;32.50;;;27.97;;
13941;SDS011;7043;51.630;7.254;2022-12-18T12:54:34;19.47;;;17.37;;
13941;SDS011;7043;51.630;7.254;2022-12-18T13:00:15;17.23;;;13.00;;
13941;SDS011;7043;51.630;7.254;2022-12-18T13:05:21;19.23;;;17.23;;
13941;SDS011;7043;51.630;7.254;2022-12-18T13:08:08;14.57;;;13.03;;
13941;SDS011;7043;51.630;7.254;2022-12-18T13:10:46;17.63;;;15.10;;
13941;SDS011;7043;51.630;7.254;2022-12-18T13:13:22;24.20;;;21.80;;
13941;SDS011;7043;51.630;7.254;2022-12-18T13:16:03;34.87;;;31.27;;
13941;SDS011;7043;51.630;7.254;2022-12-18T13:18:42;28.87;;;25.33;;
13941;SDS011;7043;51.630;7.254;2022-12-18T13:21:20;31.60;;;24.83;;
13941;SDS011;7043;51.630;7.254;2022-12-18T13:23:50;23.93;;;19.67;;
13941;SDS011;7043;51.630;7.254;2022-12-18T13:31:57;31.60;;;23.97;;
13941;SDS011;7043;51.630;7.254;2022-12-18T13:34:18;26.93;;;21.43;;
13941;SDS011;7043;51.630;7.254;2022-12-18T13:36:44;29.73;;;26.37;;
13941;SDS011;7043;51.630;7.254;2022-12-18T13:39:15;25.33;;;22.47;;
13941;SDS011;7043;51.630;7.254;2022-12-18T13:41:47;31.90;;;27.80;;
13941;SDS011;7043;51.630;7.254;2022-12-18T13:46:49;23.93;;;21.33;;
13941;SDS011;7043;51.630;7.254;2022-12-18T13:51:49;22.27;;;19.67;;
13941;SDS011;7043;51.630;7.254;2022-12-18T13:54:20;28.73;;;25.47;;
13941;SDS011;7043;51.630;7.254;2022-12-18T13:56:48;40.73;;;36.50;;
13941;SDS011;7043;51.630;7.254;2022-12-18T14:02:14;24.83;;;20.17;;
13941;SDS011;7043;51.630;7.254;2022-12-18T14:04:40;23.60;;;20.27;;
13941;SDS011;7043;51.630;7.254;2022-12-18T14:07:12;27.57;;;23.63;;
13941;SDS011;7043;51.630;7.254;2022-12-18T14:09:40;31.37;;;27.77;;
13941;SDS011;7043;51.630;7.254;2022-12-18T14:12:14;38.10;;;30.73;;
13941;SDS011;7043;51.630;7.254;2022-12-18T14:14:59;25.80;;;22.27;;
13941;SDS011;7043;51.630;7.254;2022-12-18T14:17:25;28.00;;;24.63;;
13941;SDS011;7043;51.630;7.254;2022-12-18T14:19:52;30.43;;;25.70;;
13941;SDS011;7043;51.630;7.254;2022-12-18T14:22:20;23.13;;;19.83;;
13941;SDS011;7043;51.630;7.254;2022-12-18T14:24:46;20.87;;;18.10;;
13941;SDS011;7043;51.630;7.254;2022-12-18T14:27:25;22.67;;;19.27;;
13941;SDS011;7043;51.630;7.254;2022-12-18T14:29:51;22.47;;;20.07;;
13941;SDS011;7043;51.630;7.254;2022-12-18T14:32:18;20.17;;;17.23;;
13941;SDS011;7043;51.630;7.254;2022-12-18T14:34:45;31.47;;;23.80;;
13941;SDS011;7043;51.630;7.254;2022-12-18T14:37:12;34.90;;;27.40;;
13941;SDS011;7043;51.630;7.254;2022-12-18T14:39:39;31.20;;;24.03;;
13941;SDS011;7043;51.630;7.254;2022-12-18T14:42:05;40.90;;;29.43;;
13941;SDS011;7043;51.630;7.254;2022-12-18T14:44:31;28.33;;;21.83;;
13941;SDS011;7043;51.630;7.254;2022-12-18T14:46:57;30.23;;;23.00;;
13941;SDS011;7043;51.630;7.254;2022-12-18T14:49:30;29.20;;;24.03;;
13941;SDS011;7043;51.630;7.254;2022-12-18T14:52:01;28.20;;;25.10;;
13941;SDS011;7043;51.630;7.254;2022-12-18T14:54:27;20.50;;;17.80;;
13941;SDS011;7043;51.630;7.254;2022-12-18T14:59:23;32.20;;;28.60;;
13941;SDS011;7043;51.630;7.254;2022-12-18T15:02:01;29.43;;;26.37;;
13941;SDS011;7043;51.630;7.254;2022-12-18T15:09:35;34.00;;;30.73;;
13941;SDS011;7043;51.630;7.254;2022-12-18T15:12:01;106.93;;;96.37;;
13941;SDS011;7043;51.630;7.254;2022-12-18T15:17:16;67.40;;;60.30;;
13941;SDS011;7043;51.630;7.254;2022-12-18T15:19:44;48.63;;;43.37;;
13941;SDS011;7043;51.630;7.254;2022-12-18T15:22:26;42.60;;;37.27;;
13941;SDS011;7043;51.630;7.254;2022-12-18T15:24:53;28.53;;;24.23;;
13941;SDS011;7043;51.630;7.254;2022-12-18T15:27:27;33.07;;;27.73;;
13941;SDS011;7043;51.630;7.254;2022-12-18T15:32:29;61.73;;;47.70;;
13941;SDS011;7043;51.630;7.254;2022-12-18T15:35:28;31.80;;;28.40;;
13941;SDS011;7043;51.630;7.254;2022-12-18T15:37:47;38.33;;;34.47;;
13941;SDS011;7043;51.630;7.254;2022-12-18T15:40:23;26.70;;;23.70;;
13941;SDS011;7043;51.630;7.254;2022-12-18T15:42:50;29.00;;;25.87;;
13941;SDS011;7043;51.630;7.254;2022-12-18T15:45:35;59.23;;;41.80;;
13941;SDS011;7043;51.630;7.254;2022-12-18T15:48:15;48.80;;;37.20;;
13941;SDS011;7043;51.630;7.254;2022-12-18T15:50:51;34.20;;;28.97;;
13941;SDS011;7043;51.630;7.254;2022-12-18T15:53:18;30.17;;;26.97;;
13941;SDS011;7043;51.630;7.254;2022-12-18T15:55:44;22.57;;;20.17;;
13941;SDS011;7043;51.630;7.254;2022-12-18T15:58:29;46.07;;;37.30;;
13941;SDS011;7043;51.630;7.254;2022-12-18T16:00:55;25.03;;;21.67;;
13941;SDS011;7043;51.630;7.254;2022-12-18T16:03:24;22.30;;;19.73;;
13941;SDS011;7043;51.630;7.254;2022-12-18T16:05:50;25.00;;;22.50;;
13941;SDS011;7043;51.630;7.254;2022-12-18T16:08:16;18.30;;;15.80;;
13941;SDS011;7043;51.630;7.254;2022-12-18T16:10:42;19.87;;;17.17;;
13941;SDS011;7043;51.630;7.254;2022-12-18T16:13:11;18.90;;;15.63;;
13941;SDS011;7043;51.630;7.254;2022-12-18T16:15:38;22.57;;;20.17;;
13941;SDS011;7043;51.630;7.254;2022-12-18T16:18:04;24.33;;;21.73;;
13941;SDS011;7043;51.630;7.254;2022-12-18T16:20:30;29.07;;;22.63;;
13941;SDS011;7043;51.630;7.254;2022-12-18T16:22:56;23.77;;;20.50;;
13941;SDS011;7043;51.630;7.254;2022-12-18T16:25:23;29.30;;;23.83;;
13941;SDS011;7043;51.630;7.254;2022-12-18T16:27:50;26.87;;;23.97;;
13941;SDS011;7043;51.630;7.254;2022-12-18T16:30:17;43.83;;;32.47;;
13941;SDS011;7043;51.630;7.254;2022-12-18T16:32:43;37.60;;;30.70;;